sensor_id;sensor_type;location;lat;lon;timestamp;pressure;altitude;pressure_sealevel;temperature;humidity
63903;BME280;50072;50.678;13.938;2023-06-26T00:00:22;99688.78;;;16.42;100.00
63903;BME280;50072;50.678;13.938;2023-06-26T00:03:14;99688.72;;;16.44;100.00
63903;BME280;50072;50.678;13.938;2023-06-26T00:05:42;99680.78;;;16.41;100.00
63903;BME280;50072;50.678;13.938;2023-06-26T00:08:08;99684.06;;;16.28;100.00
63903;BME280;50072;50.678;13.938;2023-06-26T00:10:34;99680.41;;;15.91;100.00
63903;BME280;50072;50.678;13.938;2023-06-26T00:13:00;99681.00;;;15.77;100.00
63903;BME280;50072;50.678;13.938;2023-06-26T00:15:27;99679.16;;;15.79;100.00
63903;BME280;50072;50.678;13.938;2023-06-26T00:17:57;99680.25;;;15.94;100.00
63903;BME280;50072;50.678;13.938;2023-06-26T00:20:23;99671.91;;;16.00;100.00
63903;BME280;50072;50.678;13.938;2023-06-26T00:22:50;99665.38;;;16.04;100.00
63903;BME280;50072;50.678;13.938;2023-06-26T00:25:18;99662.09;;;15.79;100.00
63903;BME280;50072;50.678;13.938;2023-06-26T00:27:45;99670.59;;;15.49;100.00
63903;BME280;50072;50.678;13.938;2023-06-26T00:30:11;99679.59;;;15.29;100.00
63903;BME280;50072;50.678;13.938;2023-06-26T00:32:38;99673.63;;;15.22;100.00
63903;BME280;50072;50.678;13.938;2023-06-26T00:35:04;99674.69;;;15.18;100.00
63903;BME280;50072;50.678;13.938;2023-06-26T00:37:32;99675.34;;;15.23;100.00
63903;BME280;50072;50.678;13.938;2023-06-26T00:39:58;99668.66;;;15.32;100.00
63903;BME280;50072;50.678;13.938;2023-06-26T00:42:24;99661.25;;;15.37;100.00
63903;BME280;50072;50.678;13.938;2023-06-26T00:44:50;99669.81;;;15.47;100.00
63903;BME280;50072;50.678;13.938;2023-06-26T00:47:17;99670.59;;;15.49;100.00
63903;BME280;50072;50.678;13.938;2023-06-26T00:49:43;99661.22;;;15.18;100.00
63903;BME280;50072;50.678;13.938;2023-06-26T00:52:09;99664.44;;;15.06;100.00
63903;BME280;50072;50.678;13.938;2023-06-26T00:54:35;99664.84;;;15.17;100.00
63903;BME280;50072;50.678;13.938;2023-06-26T00:57:01;99666.75;;;15.15;100.00
63903;BME280;50072;50.678;13.938;2023-06-26T00:59:27;99666.31;;;15.24;100.00
63903;BME280;50072;50.678;13.938;2023-06-26T01:01:53;99661.41;;;15.34;100.00
63903;BME280;50072;50.678;13.938;2023-06-26T01:04:18;99664.81;;;15.38;100.00
63903;BME280;50072;50.678;13.938;2023-06-26T01:06:48;99655.53;;;15.24;100.00
63903;BME280;50072;50.678;13.938;2023-06-26T01:09:19;99667.28;;;15.02;100.00
63903;BME280;50072;50.678;13.938;2023-06-26T01:11:45;99661.75;;;15.06;100.00
63903;BME280;50072;50.678;13.938;2023-06-26T01:14:16;99655.41;;;15.07;100.00
63903;BME280;50072;50.678;13.938;2023-06-26T01:16:43;99659.75;;;15.11;100.00
63903;BME280;50072;50.678;13.938;2023-06-26T01:19:23;99654.13;;;15.15;100.00
63903;BME280;50072;50.678;13.938;2023-06-26T01:22:05;99652.31;;;14.95;100.00
63903;BME280;50072;50.678;13.938;2023-06-26T01:24:47;99650.56;;;14.74;100.00
63903;BME280;50072;50.678;13.938;2023-06-26T01:27:21;99645.25;;;14.71;100.00
63903;BME280;50072;50.678;13.938;2023-06-26T01:29:49;99646.66;;;14.81;100.00
63903;BME280;50072;50.678;13.938;2023-06-26T01:32:15;99644.38;;;14.92;100.00
63903;BME280;50072;50.678;13.938;2023-06-26T01:34:42;99642.34;;;14.97;100.00
63903;BME280;50072;50.678;13.938;2023-06-26T01:37:09;99654.81;;;15.00;100.00
63903;BME280;50072;50.678;13.938;2023-06-26T01:39:34;99650.97;;;15.06;100.00
63903;BME280;50072;50.678;13.938;2023-06-26T01:42:00;99647.47;;;15.04;100.00
63903;BME280;50072;50.678;13.938;2023-06-26T01:44:28;99651.09;;;15.02;100.00
63903;BME280;50072;50.678;13.938;2023-06-26T01:47:02;99647.50;;;15.02;100.00
63903;BME280;50072;50.678;13.938;2023-06-26T01:52:02;99643.00;;;14.82;100.00
63903;BME280;50072;50.678;13.938;2023-06-26T01:54:30;99630.31;;;14.63;100.00
63903;BME280;50072;50.678;13.938;2023-06-26T01:56:59;99637.69;;;14.58;100.00
63903;BME280;50072;50.678;13.938;2023-06-26T01:59:28;99647.09;;;14.48;100.00
63903;BME280;50072;50.678;13.938;2023-06-26T02:01:57;99634.06;;;14.37;100.00
63903;BME280;50072;50.678;13.938;2023-06-26T02:04:23;99636.44;;;14.45;100.00
63903;BME280;50072;50.678;13.938;2023-06-26T02:06:49;99629.84;;;14.52;100.00
63903;BME280;50072;50.678;13.938;2023-06-26T02:09:15;99635.00;;;14.58;100.00
63903;BME280;50072;50.678;13.938;2023-06-26T02:11:41;99634.88;;;14.61;100.00
63903;BME280;50072;50.678;13.938;2023-06-26T02:14:07;99638.91;;;14.51;100.00
63903;BME280;50072;50.678;13.938;2023-06-26T02:16:35;99638.06;;;14.49;100.00
63903;BME280;50072;50.678;13.938;2023-06-26T02:19:01;99632.44;;;14.55;100.00
63903;BME280;50072;50.678;13.938;2023-06-26T02:21:27;99629.38;;;14.64;100.00
63903;BME280;50072;50.678;13.938;2023-06-26T02:23:53;99631.19;;;14.64;100.00
63903;BME280;50072;50.678;13.938;2023-06-26T02:26:19;99640.63;;;14.52;100.00
63903;BME280;50072;50.678;13.938;2023-06-26T02:28:45;99632.25;;;14.38;100.00
63903;BME280;50072;50.678;13.938;2023-06-26T02:31:11;99629.63;;;14.36;100.00
63903;BME280;50072;50.678;13.938;2023-06-26T02:33:37;99633.66;;;14.48;100.00
63903;BME280;50072;50.678;13.938;2023-06-26T02:36:04;99624.59;;;14.49;100.00
63903;BME280;50072;50.678;13.938;2023-06-26T02:38:30;99626.22;;;14.53;100.00
63903;BME280;50072;50.678;13.938;2023-06-26T02:40:56;99622.53;;;14.56;100.00
63903;BME280;50072;50.678;13.938;2023-06-26T02:43:22;99628.63;;;14.61;100.00
63903;BME280;50072;50.678;13.938;2023-06-26T02:45:48;99629.38;;;14.64;100.00
63903;BME280;50072;50.678;13.938;2023-06-26T02:48:14;99626.38;;;14.50;100.00
63903;BME280;50072;50.678;13.938;2023-06-26T02:50:40;99625.88;;;14.40;100.00
63903;BME280;50072;50.678;13.938;2023-06-26T02:53:06;99625.13;;;14.37;100.00
63903;BME280;50072;50.678;13.938;2023-06-26T02:55:34;99618.56;;;14.44;100.00
63903;BME280;50072;50.678;13.938;2023-06-26T02:58:00;99619.22;;;14.49;100.00
63903;BME280;50072;50.678;13.938;2023-06-26T03:00:27;99624.47;;;14.52;100.00
63903;BME280;50072;50.678;13.938;2023-06-26T03:02:55;99623.47;;;14.55;100.00
63903;BME280;50072;50.678;13.938;2023-06-26T03:05:21;99629.75;;;14.55;100.00
63903;BME280;50072;50.678;13.938;2023-06-26T03:07:49;99627.81;;;14.37;100.00
63903;BME280;50072;50.678;13.938;2023-06-26T03:10:15;99622.09;;;14.22;100.00
63903;BME280;50072;50.678;13.938;2023-06-26T03:12:41;99619.47;;;14.21;100.00
63903;BME280;50072;50.678;13.938;2023-06-26T03:15:08;99623.63;;;14.29;100.00
63903;BME280;50072;50.678;13.938;2023-06-26T03:17:33;99617.91;;;14.37;100.00
63903;BME280;50072;50.678;13.938;2023-06-26T03:20:00;99613.81;;;14.49;100.00
63903;BME280;50072;50.678;13.938;2023-06-26T03:22:26;99618.06;;;14.55;100.00
63903;BME280;50072;50.678;13.938;2023-06-26T03:24:52;99615.91;;;14.64;100.00
63903;BME280;50072;50.678;13.938;2023-06-26T03:27:18;99621.09;;;14.69;100.00
63903;BME280;50072;50.678;13.938;2023-06-26T03:29:44;99619.84;;;14.78;100.00
63903;BME280;50072;50.678;13.938;2023-06-26T03:32:10;99621.44;;;14.82;100.00
63903;BME280;50072;50.678;13.938;2023-06-26T03:34:36;99620.22;;;14.89;100.00
63903;BME280;50072;50.678;13.938;2023-06-26T03:37:02;99619.38;;;14.89;100.00
63903;BME280;50072;50.678;13.938;2023-06-26T03:39:28;99626.44;;;14.91;100.00
63903;BME280;50072;50.678;13.938;2023-06-26T03:41:55;99616.53;;;14.92;100.00
63903;BME280;50072;50.678;13.938;2023-06-26T03:44:22;99620.19;;;14.91;100.00
63903;BME280;50072;50.678;13.938;2023-06-26T03:46:49;99621.84;;;14.93;100.00
63903;BME280;50072;50.678;13.938;2023-06-26T03:49:14;99616.59;;;14.90;100.00
63903;BME280;50072;50.678;13.938;2023-06-26T03:51:40;99615.03;;;14.84;100.00
63903;BME280;50072;50.678;13.938;2023-06-26T03:54:06;99615.53;;;14.74;100.00
63903;BME280;50072;50.678;13.938;2023-06-26T03:56:32;99617.59;;;14.67;100.00
63903;BME280;50072;50.678;13.938;2023-06-26T03:58:58;99608.75;;;14.63;100.00
63903;BME280;50072;50.678;13.938;2023-06-26T04:01:23;99614.03;;;14.66;100.00
63903;BME280;50072;50.678;13.938;2023-06-26T04:03:49;99612.06;;;14.70;100.00
63903;BME280;50072;50.678;13.938;2023-06-26T04:06:16;99614.25;;;14.60;100.00
63903;BME280;50072;50.678;13.938;2023-06-26T04:08:42;99612.44;;;14.61;100.00
63903;BME280;50072;50.678;13.938;2023-06-26T04:11:08;99610.31;;;14.69;100.00
63903;BME280;50072;50.678;13.938;2023-06-26T04:13:34;99598.00;;;14.84;100.00
63903;BME280;50072;50.678;13.938;2023-06-26T04:16:00;99603.66;;;14.98;100.00
63903;BME280;50072;50.678;13.938;2023-06-26T04:18:25;99602.31;;;15.09;100.00
63903;BME280;50072;50.678;13.938;2023-06-26T04:21:11;99612.41;;;15.24;100.00
63903;BME280;50072;50.678;13.938;2023-06-26T04:23:38;99601.06;;;15.36;100.00
63903;BME280;50072;50.678;13.938;2023-06-26T04:26:05;99594.38;;;15.45;100.00
63903;BME280;50072;50.678;13.938;2023-06-26T04:28:33;99600.22;;;15.55;100.00
63903;BME280;50072;50.678;13.938;2023-06-26T04:31:00;99596.91;;;15.67;100.00
63903;BME280;50072;50.678;13.938;2023-06-26T04:33:27;99590.44;;;15.71;100.00
63903;BME280;50072;50.678;13.938;2023-06-26T04:35:54;99590.16;;;15.78;100.00
63903;BME280;50072;50.678;13.938;2023-06-26T04:38:20;99598.78;;;15.86;100.00
63903;BME280;50072;50.678;13.938;2023-06-26T04:40:50;99599.22;;;15.96;100.00
63903;BME280;50072;50.678;13.938;2023-06-26T04:43:16;99600.47;;;16.08;100.00
63903;BME280;50072;50.678;13.938;2023-06-26T04:45:43;99597.28;;;16.17;100.00
63903;BME280;50072;50.678;13.938;2023-06-26T04:48:09;99589.84;;;16.22;100.00
63903;BME280;50072;50.678;13.938;2023-06-26T04:50:35;99584.13;;;16.28;100.00
63903;BME280;50072;50.678;13.938;2023-06-26T04:53:02;99581.13;;;16.34;100.00
63903;BME280;50072;50.678;13.938;2023-06-26T04:55:31;99580.00;;;16.38;100.00
63903;BME280;50072;50.678;13.938;2023-06-26T04:57:58;99583.38;;;16.44;100.00
63903;BME280;50072;50.678;13.938;2023-06-26T05:00:27;99582.25;;;16.48;100.00
63903;BME280;50072;50.678;13.938;2023-06-26T05:02:54;99577.47;;;16.53;100.00
63903;BME280;50072;50.678;13.938;2023-06-26T05:05:28;99589.03;;;16.56;100.00
63903;BME280;50072;50.678;13.938;2023-06-26T05:07:55;99583.19;;;16.64;100.00
63903;BME280;50072;50.678;13.938;2023-06-26T05:10:24;99582.25;;;16.65;100.00
63903;BME280;50072;50.678;13.938;2023-06-26T05:12:49;99580.03;;;16.73;100.00
63903;BME280;50072;50.678;13.938;2023-06-26T05:15:17;99575.13;;;16.82;100.00
63903;BME280;50072;50.678;13.938;2023-06-26T05:17:43;99573.13;;;16.85;100.00
63903;BME280;50072;50.678;13.938;2023-06-26T05:20:11;99576.41;;;16.92;100.00
63903;BME280;50072;50.678;13.938;2023-06-26T05:22:38;99587.34;;;17.06;100.00
63903;BME280;50072;50.678;13.938;2023-06-26T05:25:08;99584.97;;;17.18;100.00
63903;BME280;50072;50.678;13.938;2023-06-26T05:27:38;99580.88;;;17.27;100.00
63903;BME280;50072;50.678;13.938;2023-06-26T05:30:08;99583.16;;;17.34;100.00
63903;BME280;50072;50.678;13.938;2023-06-26T05:32:35;99576.72;;;17.53;100.00
63903;BME280;50072;50.678;13.938;2023-06-26T05:35:04;99574.22;;;17.66;100.00
63903;BME280;50072;50.678;13.938;2023-06-26T05:37:31;99576.88;;;17.67;100.00
63903;BME280;50072;50.678;13.938;2023-06-26T05:40:01;99571.28;;;17.70;100.00
63903;BME280;50072;50.678;13.938;2023-06-26T05:42:29;99564.81;;;17.89;100.00
63903;BME280;50072;50.678;13.938;2023-06-26T05:44:56;99562.22;;;18.03;100.00
63903;BME280;50072;50.678;13.938;2023-06-26T05:47:23;99566.03;;;18.15;100.00
63903;BME280;50072;50.678;13.938;2023-06-26T05:49:49;99560.59;;;18.31;100.00
63903;BME280;50072;50.678;13.938;2023-06-26T05:52:17;99561.81;;;18.41;100.00
63903;BME280;50072;50.678;13.938;2023-06-26T05:54:45;99562.22;;;18.50;100.00
63903;BME280;50072;50.678;13.938;2023-06-26T05:57:12;99566.72;;;18.65;100.00
63903;BME280;50072;50.678;13.938;2023-06-26T05:59:40;99559.78;;;18.75;100.00
63903;BME280;50072;50.678;13.938;2023-06-26T06:02:08;99557.81;;;18.93;100.00
63903;BME280;50072;50.678;13.938;2023-06-26T06:04:35;99552.69;;;19.03;100.00
63903;BME280;50072;50.678;13.938;2023-06-26T06:07:04;99560.75;;;19.05;100.00
63903;BME280;50072;50.678;13.938;2023-06-26T06:09:30;99556.88;;;19.09;100.00
63903;BME280;50072;50.678;13.938;2023-06-26T06:11:56;99559.09;;;19.17;100.00
63903;BME280;50072;50.678;13.938;2023-06-26T06:14:22;99555.03;;;19.24;100.00
63903;BME280;50072;50.678;13.938;2023-06-26T06:16:50;99551.34;;;19.25;100.00
63903;BME280;50072;50.678;13.938;2023-06-26T06:19:17;99550.38;;;19.26;100.00
63903;BME280;50072;50.678;13.938;2023-06-26T06:21:43;99543.59;;;19.33;100.00
63903;BME280;50072;50.678;13.938;2023-06-26T06:24:09;99545.06;;;19.24;100.00
63903;BME280;50072;50.678;13.938;2023-06-26T06:26:35;99534.22;;;19.24;100.00
63903;BME280;50072;50.678;13.938;2023-06-26T06:29:03;99543.19;;;19.39;100.00
63903;BME280;50072;50.678;13.938;2023-06-26T06:31:29;99547.06;;;19.49;100.00
63903;BME280;50072;50.678;13.938;2023-06-26T06:33:56;99542.44;;;19.52;100.00
63903;BME280;50072;50.678;13.938;2023-06-26T06:36:22;99536.31;;;19.62;99.70
63903;BME280;50072;50.678;13.938;2023-06-26T06:38:48;99532.22;;;19.70;98.93
63903;BME280;50072;50.678;13.938;2023-06-26T06:41:15;99529.53;;;19.70;98.41
63903;BME280;50072;50.678;13.938;2023-06-26T06:43:43;99521.72;;;19.78;96.92
63903;BME280;50072;50.678;13.938;2023-06-26T06:46:09;99531.72;;;19.77;97.47
63903;BME280;50072;50.678;13.938;2023-06-26T06:48:35;99526.13;;;19.80;96.83
63903;BME280;50072;50.678;13.938;2023-06-26T06:51:00;99526.38;;;19.90;96.77
63903;BME280;50072;50.678;13.938;2023-06-26T06:53:26;99530.34;;;19.99;95.69
63903;BME280;50072;50.678;13.938;2023-06-26T06:55:52;99524.31;;;20.08;95.58
63903;BME280;50072;50.678;13.938;2023-06-26T06:58:18;99525.41;;;20.18;94.73
63903;BME280;50072;50.678;13.938;2023-06-26T07:00:48;99519.16;;;20.31;93.34
63903;BME280;50072;50.678;13.938;2023-06-26T07:03:15;99524.53;;;20.45;92.57
63903;BME280;50072;50.678;13.938;2023-06-26T07:05:41;99526.91;;;20.50;90.35
63903;BME280;50072;50.678;13.938;2023-06-26T07:08:08;99517.47;;;20.56;90.25
63903;BME280;50072;50.678;13.938;2023-06-26T07:10:35;99517.53;;;20.68;90.04
63903;BME280;50072;50.678;13.938;2023-06-26T07:13:02;99514.38;;;20.88;87.62
63903;BME280;50072;50.678;13.938;2023-06-26T07:15:28;99509.28;;;20.96;86.70
63903;BME280;50072;50.678;13.938;2023-06-26T07:17:54;99512.53;;;21.01;86.51
63903;BME280;50072;50.678;13.938;2023-06-26T07:20:21;99511.25;;;21.07;86.70
63903;BME280;50072;50.678;13.938;2023-06-26T07:22:48;99504.91;;;21.19;86.65
63903;BME280;50072;50.678;13.938;2023-06-26T07:25:22;99505.44;;;21.37;80.97
63903;BME280;50072;50.678;13.938;2023-06-26T07:27:50;99514.34;;;21.39;79.31
63903;BME280;50072;50.678;13.938;2023-06-26T07:30:16;99510.78;;;21.51;81.58
63903;BME280;50072;50.678;13.938;2023-06-26T07:32:44;99518.34;;;21.72;79.32
63903;BME280;50072;50.678;13.938;2023-06-26T07:35:14;99514.16;;;21.92;77.85
63903;BME280;50072;50.678;13.938;2023-06-26T07:37:42;99508.66;;;22.05;78.32
63903;BME280;50072;50.678;13.938;2023-06-26T07:40:13;99504.97;;;22.17;78.08
63903;BME280;50072;50.678;13.938;2023-06-26T07:42:40;99507.09;;;22.38;76.56
63903;BME280;50072;50.678;13.938;2023-06-26T07:45:06;99502.44;;;22.63;75.17
63903;BME280;50072;50.678;13.938;2023-06-26T07:47:39;99501.38;;;22.77;73.28
63903;BME280;50072;50.678;13.938;2023-06-26T07:50:18;99494.59;;;22.93;72.85
63903;BME280;50072;50.678;13.938;2023-06-26T07:52:48;99502.97;;;23.15;72.82
63903;BME280;50072;50.678;13.938;2023-06-26T07:55:16;99494.78;;;23.15;72.04
63903;BME280;50072;50.678;13.938;2023-06-26T07:57:43;99499.47;;;23.24;71.71
63903;BME280;50072;50.678;13.938;2023-06-26T08:00:10;99497.84;;;23.44;71.22
63903;BME280;50072;50.678;13.938;2023-06-26T08:02:38;99494.78;;;23.49;72.30
63903;BME280;50072;50.678;13.938;2023-06-26T08:05:04;99489.03;;;23.63;72.53
63903;BME280;50072;50.678;13.938;2023-06-26T08:07:32;99481.19;;;23.70;72.02
63903;BME280;50072;50.678;13.938;2023-06-26T08:10:02;99486.16;;;23.87;70.83
63903;BME280;50072;50.678;13.938;2023-06-26T08:12:28;99474.44;;;23.85;70.94
63903;BME280;50072;50.678;13.938;2023-06-26T08:14:54;99478.22;;;24.17;70.07
63903;BME280;50072;50.678;13.938;2023-06-26T08:17:20;99473.78;;;24.37;68.65
63903;BME280;50072;50.678;13.938;2023-06-26T08:19:45;99476.31;;;24.28;67.24
63903;BME280;50072;50.678;13.938;2023-06-26T08:22:13;99472.38;;;24.42;68.84
63903;BME280;50072;50.678;13.938;2023-06-26T08:24:39;99468.44;;;24.68;65.66
63903;BME280;50072;50.678;13.938;2023-06-26T08:27:05;99462.19;;;24.87;65.58
63903;BME280;50072;50.678;13.938;2023-06-26T08:29:33;99471.66;;;25.04;64.90
63903;BME280;50072;50.678;13.938;2023-06-26T08:31:58;99462.22;;;25.18;64.54
63903;BME280;50072;50.678;13.938;2023-06-26T08:34:24;99460.25;;;25.29;63.70
63903;BME280;50072;50.678;13.938;2023-06-26T08:36:50;99461.72;;;25.33;63.48
63903;BME280;50072;50.678;13.938;2023-06-26T08:39:16;99458.31;;;25.41;62.07
63903;BME280;50072;50.678;13.938;2023-06-26T08:41:42;99459.53;;;25.27;60.72
63903;BME280;50072;50.678;13.938;2023-06-26T08:44:08;99456.72;;;25.39;60.94
63903;BME280;50072;50.678;13.938;2023-06-26T08:46:38;99448.38;;;25.50;61.19
63903;BME280;50072;50.678;13.938;2023-06-26T08:49:25;99445.56;;;25.81;62.21
63903;BME280;50072;50.678;13.938;2023-06-26T08:52:13;99446.06;;;26.06;58.86
63903;BME280;50072;50.678;13.938;2023-06-26T08:54:45;99437.09;;;26.23;59.37
63903;BME280;50072;50.678;13.938;2023-06-26T08:57:17;99430.31;;;26.37;58.18
63903;BME280;50072;50.678;13.938;2023-06-26T08:59:47;99432.75;;;26.50;57.46
63903;BME280;50072;50.678;13.938;2023-06-26T09:02:14;99430.09;;;26.78;56.33
63903;BME280;50072;50.678;13.938;2023-06-26T09:04:40;99428.41;;;26.77;56.77
63903;BME280;50072;50.678;13.938;2023-06-26T09:07:07;99429.78;;;26.91;55.37
63903;BME280;50072;50.678;13.938;2023-06-26T09:09:33;99424.88;;;27.22;54.38
63903;BME280;50072;50.678;13.938;2023-06-26T09:12:02;99426.47;;;27.34;53.53
63903;BME280;50072;50.678;13.938;2023-06-26T09:14:30;99421.78;;;27.45;54.06
63903;BME280;50072;50.678;13.938;2023-06-26T09:16:56;99421.13;;;27.79;51.30
63903;BME280;50072;50.678;13.938;2023-06-26T09:19:22;99422.28;;;28.04;50.76
63903;BME280;50072;50.678;13.938;2023-06-26T09:21:50;99413.22;;;28.30;49.96
63903;BME280;50072;50.678;13.938;2023-06-26T09:24:17;99419.97;;;28.35;48.22
63903;BME280;50072;50.678;13.938;2023-06-26T09:26:43;99411.66;;;28.27;49.72
63903;BME280;50072;50.678;13.938;2023-06-26T09:29:10;99414.63;;;28.52;48.54
63903;BME280;50072;50.678;13.938;2023-06-26T09:31:39;99406.56;;;28.77;48.24
63903;BME280;50072;50.678;13.938;2023-06-26T09:34:06;99414.47;;;28.80;46.90
63903;BME280;50072;50.678;13.938;2023-06-26T09:36:33;99411.22;;;28.76;46.78
63903;BME280;50072;50.678;13.938;2023-06-26T09:39:04;99401.25;;;28.83;46.06
63903;BME280;50072;50.678;13.938;2023-06-26T09:41:30;99402.44;;;29.15;46.91
63903;BME280;50072;50.678;13.938;2023-06-26T09:44:01;99404.00;;;29.52;46.70
63903;BME280;50072;50.678;13.938;2023-06-26T09:46:30;99397.00;;;29.66;45.37
63903;BME280;50072;50.678;13.938;2023-06-26T09:49:10;99400.38;;;30.27;44.27
63903;BME280;50072;50.678;13.938;2023-06-26T09:51:39;99393.41;;;30.81;43.00
63903;BME280;50072;50.678;13.938;2023-06-26T09:54:07;99395.28;;;30.97;41.31
63903;BME280;50072;50.678;13.938;2023-06-26T09:56:35;99384.59;;;31.02;42.02
63903;BME280;50072;50.678;13.938;2023-06-26T09:59:02;99382.91;;;30.76;41.64
63903;BME280;50072;50.678;13.938;2023-06-26T10:01:31;99379.75;;;31.04;41.43
63903;BME280;50072;50.678;13.938;2023-06-26T10:03:57;99378.31;;;31.17;39.70
63903;BME280;50072;50.678;13.938;2023-06-26T10:06:31;99371.06;;;31.15;41.38
63903;BME280;50072;50.678;13.938;2023-06-26T10:08:59;99372.75;;;31.56;39.52
63903;BME280;50072;50.678;13.938;2023-06-26T10:11:41;99366.81;;;31.76;39.03
63903;BME280;50072;50.678;13.938;2023-06-26T10:14:13;99350.00;;;32.00;38.35
63903;BME280;50072;50.678;13.938;2023-06-26T10:16:41;99340.53;;;32.56;38.48
63903;BME280;50072;50.678;13.938;2023-06-26T10:19:10;99345.22;;;32.17;38.42
63903;BME280;50072;50.678;13.938;2023-06-26T10:21:38;99347.16;;;32.32;38.64
63903;BME280;50072;50.678;13.938;2023-06-26T10:24:06;99341.97;;;33.12;36.84
63903;BME280;50072;50.678;13.938;2023-06-26T10:26:37;99343.22;;;33.09;35.19
63903;BME280;50072;50.678;13.938;2023-06-26T10:29:04;99341.63;;;33.66;34.92
63903;BME280;50072;50.678;13.938;2023-06-26T10:31:33;99344.09;;;34.19;33.93
63903;BME280;50072;50.678;13.938;2023-06-26T10:33:59;99339.13;;;33.93;33.43
63903;BME280;50072;50.678;13.938;2023-06-26T10:36:30;99331.75;;;34.50;32.88
63903;BME280;50072;50.678;13.938;2023-06-26T10:39:03;99325.28;;;35.13;32.00
63903;BME280;50072;50.678;13.938;2023-06-26T10:41:36;99325.50;;;35.05;31.23
63903;BME280;50072;50.678;13.938;2023-06-26T10:44:08;99324.28;;;34.79;31.68
63903;BME280;50072;50.678;13.938;2023-06-26T10:46:47;99323.03;;;35.92;31.53
63903;BME280;50072;50.678;13.938;2023-06-26T10:49:15;99310.63;;;36.48;27.98
63903;BME280;50072;50.678;13.938;2023-06-26T10:51:48;99314.88;;;36.17;28.28
63903;BME280;50072;50.678;13.938;2023-06-26T10:54:19;99300.72;;;36.86;28.36
63903;BME280;50072;50.678;13.938;2023-06-26T10:56:50;99308.38;;;37.94;26.51
63903;BME280;50072;50.678;13.938;2023-06-26T10:59:18;99300.75;;;37.70;27.06
63903;BME280;50072;50.678;13.938;2023-06-26T11:01:46;99300.78;;;38.96;25.28
63903;BME280;50072;50.678;13.938;2023-06-26T11:04:35;99295.56;;;39.18;24.39
63903;BME280;50072;50.678;13.938;2023-06-26T11:07:24;99298.63;;;40.08;23.92
63903;BME280;50072;50.678;13.938;2023-06-26T11:09:55;99298.53;;;40.38;23.14
63903;BME280;50072;50.678;13.938;2023-06-26T11:12:44;99301.56;;;41.08;22.29
63903;BME280;50072;50.678;13.938;2023-06-26T11:15:15;99300.00;;;41.98;21.71
63903;BME280;50072;50.678;13.938;2023-06-26T11:17:43;99289.13;;;41.03;22.03
63903;BME280;50072;50.678;13.938;2023-06-26T11:20:11;99283.75;;;39.46;23.14
63903;BME280;50072;50.678;13.938;2023-06-26T11:22:39;99287.41;;;36.81;26.08
63903;BME280;50072;50.678;13.938;2023-06-26T11:25:06;99282.25;;;35.02;28.35
63903;BME280;50072;50.678;13.938;2023-06-26T11:30:07;99278.94;;;33.20;31.63
63903;BME280;50072;50.678;13.938;2023-06-26T11:32:35;99286.59;;;33.92;30.93
63903;BME280;50072;50.678;13.938;2023-06-26T11:35:01;99280.22;;;34.19;30.55
63903;BME280;50072;50.678;13.938;2023-06-26T11:37:31;99278.94;;;37.08;26.25
63903;BME280;50072;50.678;13.938;2023-06-26T11:39:57;99274.38;;;38.48;24.82
63903;BME280;50072;50.678;13.938;2023-06-26T11:42:23;99279.78;;;40.50;22.62
63903;BME280;50072;50.678;13.938;2023-06-26T11:44:52;99272.72;;;41.99;21.09
63903;BME280;50072;50.678;13.938;2023-06-26T11:47:20;99272.72;;;43.83;19.64
63903;BME280;50072;50.678;13.938;2023-06-26T11:49:47;99265.88;;;44.38;18.45
63903;BME280;50072;50.678;13.938;2023-06-26T11:52:15;99266.53;;;44.98;17.73
63903;BME280;50072;50.678;13.938;2023-06-26T11:54:42;99267.91;;;45.75;17.35
63903;BME280;50072;50.678;13.938;2023-06-26T11:57:08;99273.19;;;45.30;16.68
63903;BME280;50072;50.678;13.938;2023-06-26T11:59:38;99262.56;;;44.14;17.68
63903;BME280;50072;50.678;13.938;2023-06-26T12:02:11;99262.75;;;45.36;16.50
63903;BME280;50072;50.678;13.938;2023-06-26T12:04:41;99248.94;;;45.49;16.90
63903;BME280;50072;50.678;13.938;2023-06-26T12:07:08;99253.81;;;45.90;16.40
63903;BME280;50072;50.678;13.938;2023-06-26T12:09:43;99253.22;;;46.60;15.81
63903;BME280;50072;50.678;13.938;2023-06-26T12:12:14;99251.81;;;46.37;15.96
63903;BME280;50072;50.678;13.938;2023-06-26T12:14:40;99240.63;;;44.64;17.50
63903;BME280;50072;50.678;13.938;2023-06-26T12:17:10;99240.41;;;43.90;17.34
63903;BME280;50072;50.678;13.938;2023-06-26T12:19:38;99239.66;;;44.05;17.95
63903;BME280;50072;50.678;13.938;2023-06-26T12:22:09;99234.28;;;45.99;16.48
63903;BME280;50072;50.678;13.938;2023-06-26T12:24:37;99219.66;;;43.74;17.60
63903;BME280;50072;50.678;13.938;2023-06-26T12:27:17;99222.97;;;46.30;15.85
63903;BME280;50072;50.678;13.938;2023-06-26T12:29:53;99219.88;;;45.85;16.10
63903;BME280;50072;50.678;13.938;2023-06-26T12:32:22;99211.97;;;44.83;16.65
63903;BME280;50072;50.678;13.938;2023-06-26T12:34:50;99203.75;;;46.01;16.12
63903;BME280;50072;50.678;13.938;2023-06-26T12:37:16;99206.97;;;45.05;16.22
63903;BME280;50072;50.678;13.938;2023-06-26T12:42:17;99210.22;;;45.71;16.23
63903;BME280;50072;50.678;13.938;2023-06-26T12:44:43;99217.03;;;46.37;15.23
63903;BME280;50072;50.678;13.938;2023-06-26T12:47:09;99207.09;;;47.20;14.54
63903;BME280;50072;50.678;13.938;2023-06-26T12:49:38;99199.72;;;47.64;14.05
63903;BME280;50072;50.678;13.938;2023-06-26T12:52:12;99199.69;;;48.03;14.19
63903;BME280;50072;50.678;13.938;2023-06-26T12:54:41;99198.31;;;46.51;14.53
63903;BME280;50072;50.678;13.938;2023-06-26T12:57:07;99187.88;;;46.21;15.70